sensor_id;sensor_type;location;lat;lon;timestamp;P1;durP1;ratioP1;P2;durP2;ratioP2
56201;SDS011;42117;50.360;3.508;2022-09-09T00:00:00;1.60;;;1.20;;
56201;SDS011;42117;50.360;3.508;2022-09-09T00:02:29;7.95;;;1.40;;
56201;SDS011;42117;50.360;3.508;2022-09-09T00:12:43;0.60;;;0.60;;
56201;SDS011;42117;50.360;3.508;2022-09-09T00:15:20;2.45;;;1.05;;
56201;SDS011;42117;50.360;3.508;2022-09-09T00:20:16;4.20;;;0.98;;
56201;SDS011;42117;50.360;3.508;2022-09-09T00:28:13;4.80;;;1.40;;
56201;SDS011;42117;50.360;3.508;2022-09-09T00:30:40;1.33;;;1.00;;
56201;SDS011;42117;50.360;3.508;2022-09-09T00:33:11;5.30;;;1.65;;
56201;SDS011;42117;50.360;3.508;2022-09-09T00:35:41;4.60;;;1.40;;
56201;SDS011;42117;50.360;3.508;2022-09-09T00:38:23;4.93;;;1.92;;
56201;SDS011;42117;50.360;3.508;2022-09-09T00:48:27;1.42;;;1.05;;
56201;SDS011;42117;50.360;3.508;2022-09-09T00:50:59;8.65;;;3.28;;
56201;SDS011;42117;50.360;3.508;2022-09-09T00:56:30;8.13;;;2.50;;
56201;SDS011;42117;50.360;3.508;2022-09-09T01:01:31;2.30;;;1.30;;
56201;SDS011;42117;50.360;3.508;2022-09-09T01:03:57;2.05;;;1.10;;
56201;SDS011;42117;50.360;3.508;2022-09-09T01:16:59;4.93;;;1.98;;
56201;SDS011;42117;50.360;3.508;2022-09-09T01:24:42;11.40;;;2.93;;
56201;SDS011;42117;50.360;3.508;2022-09-09T01:27:14;14.35;;;3.28;;
56201;SDS011;42117;50.360;3.508;2022-09-09T01:29:42;5.50;;;2.47;;
56201;SDS011;42117;50.360;3.508;2022-09-09T01:34:53;10.30;;;2.05;;
56201;SDS011;42117;50.360;3.508;2022-09-09T01:37:19;6.72;;;1.88;;
56201;SDS011;42117;50.360;3.508;2022-09-09T01:39:45;9.05;;;2.60;;
56201;SDS011;42117;50.360;3.508;2022-09-09T01:42:13;9.27;;;2.60;;
56201;SDS011;42117;50.360;3.508;2022-09-09T01:44:39;2.70;;;1.80;;
56201;SDS011;42117;50.360;3.508;2022-09-09T01:47:05;13.02;;;3.55;;
56201;SDS011;42117;50.360;3.508;2022-09-09T01:49:32;12.05;;;3.25;;
56201;SDS011;42117;50.360;3.508;2022-09-09T01:51:58;13.05;;;3.70;;
56201;SDS011;42117;50.360;3.508;2022-09-09T01:54:26;10.13;;;2.90;;
56201;SDS011;42117;50.360;3.508;2022-09-09T01:57:06;15.23;;;2.78;;
56201;SDS011;42117;50.360;3.508;2022-09-09T02:02:21;9.13;;;3.33;;
56201;SDS011;42117;50.360;3.508;2022-09-09T02:04:54;6.68;;;2.78;;
56201;SDS011;42117;50.360;3.508;2022-09-09T02:10:29;9.60;;;2.38;;
56201;SDS011;42117;50.360;3.508;2022-09-09T02:15:33;5.70;;;1.30;;
56201;SDS011;42117;50.360;3.508;2022-09-09T02:18:00;2.08;;;0.70;;
56201;SDS011;42117;50.360;3.508;2022-09-09T02:20:27;5.00;;;1.65;;
56201;SDS011;42117;50.360;3.508;2022-09-09T02:22:57;2.45;;;1.38;;
56201;SDS011;42117;50.360;3.508;2022-09-09T02:25:24;5.85;;;2.50;;
56201;SDS011;42117;50.360;3.508;2022-09-09T02:27:51;7.70;;;2.60;;
56201;SDS011;42117;50.360;3.508;2022-09-09T02:30:18;4.43;;;1.05;;
56201;SDS011;42117;50.360;3.508;2022-09-09T02:32:45;5.70;;;2.55;;
56201;SDS011;42117;50.360;3.508;2022-09-09T02:35:15;11.90;;;4.25;;
56201;SDS011;42117;50.360;3.508;2022-09-09T02:37:42;12.57;;;3.88;;
56201;SDS011;42117;50.360;3.508;2022-09-09T02:40:13;2.83;;;1.33;;
56201;SDS011;42117;50.360;3.508;2022-09-09T02:42:43;5.38;;;2.35;;
56201;SDS011;42117;50.360;3.508;2022-09-09T02:45:10;4.57;;;2.55;;
56201;SDS011;42117;50.360;3.508;2022-09-09T02:53:07;8.07;;;3.10;;
56201;SDS011;42117;50.360;3.508;2022-09-09T02:55:37;8.05;;;2.38;;
56201;SDS011;42117;50.360;3.508;2022-09-09T02:58:05;6.00;;;1.77;;
56201;SDS011;42117;50.360;3.508;2022-09-09T03:00:32;6.88;;;2.85;;
56201;SDS011;42117;50.360;3.508;2022-09-09T03:03:00;5.32;;;1.95;;
56201;SDS011;42117;50.360;3.508;2022-09-09T03:05:27;8.55;;;2.78;;
56201;SDS011;42117;50.360;3.508;2022-09-09T03:07:53;8.05;;;3.33;;
56201;SDS011;42117;50.360;3.508;2022-09-09T03:10:19;8.60;;;3.15;;
56201;SDS011;42117;50.360;3.508;2022-09-09T03:12:45;8.23;;;2.75;;
56201;SDS011;42117;50.360;3.508;2022-09-09T03:15:11;11.85;;;2.67;;
56201;SDS011;42117;50.360;3.508;2022-09-09T03:17:37;8.43;;;2.33;;
56201;SDS011;42117;50.360;3.508;2022-09-09T03:20:03;10.00;;;3.58;;
56201;SDS011;42117;50.360;3.508;2022-09-09T03:22:29;10.70;;;3.55;;
56201;SDS011;42117;50.360;3.508;2022-09-09T03:24:55;9.93;;;2.75;;
56201;SDS011;42117;50.360;3.508;2022-09-09T03:27:21;13.15;;;2.65;;
56201;SDS011;42117;50.360;3.508;2022-09-09T03:29:47;10.50;;;2.38;;
56201;SDS011;42117;50.360;3.508;2022-09-09T03:32:16;6.60;;;2.75;;
56201;SDS011;42117;50.360;3.508;2022-09-09T03:34:42;21.15;;;3.78;;
56201;SDS011;42117;50.360;3.508;2022-09-09T03:37:08;7.45;;;1.77;;
56201;SDS011;42117;50.360;3.508;2022-09-09T03:39:34;11.38;;;2.90;;
56201;SDS011;42117;50.360;3.508;2022-09-09T03:42:00;6.78;;;1.98;;
56201;SDS011;42117;50.360;3.508;2022-09-09T03:44:30;7.35;;;1.90;;
56201;SDS011;42117;50.360;3.508;2022-09-09T03:46:56;8.45;;;1.95;;
56201;SDS011;42117;50.360;3.508;2022-09-09T03:49:25;12.02;;;2.13;;
56201;SDS011;42117;50.360;3.508;2022-09-09T03:51:51;7.32;;;2.30;;
56201;SDS011;42117;50.360;3.508;2022-09-09T03:54:17;10.20;;;2.03;;
56201;SDS011;42117;50.360;3.508;2022-09-09T03:56:43;15.23;;;2.70;;
56201;SDS011;42117;50.360;3.508;2022-09-09T03:59:10;8.48;;;1.85;;
56201;SDS011;42117;50.360;3.508;2022-09-09T04:01:36;22.77;;;2.97;;
56201;SDS011;42117;50.360;3.508;2022-09-09T04:04:02;6.28;;;2.08;;
56201;SDS011;42117;50.360;3.508;2022-09-09T04:06:28;2.80;;;1.38;;
56201;SDS011;42117;50.360;3.508;2022-09-09T04:08:55;7.68;;;1.90;;
56201;SDS011;42117;50.360;3.508;2022-09-09T04:11:21;3.67;;;0.95;;
56201;SDS011;42117;50.360;3.508;2022-09-09T04:13:47;3.92;;;1.77;;
56201;SDS011;42117;50.360;3.508;2022-09-09T04:16:14;12.77;;;1.92;;
56201;SDS011;42117;50.360;3.508;2022-09-09T04:18:40;7.00;;;1.92;;
56201;SDS011;42117;50.360;3.508;2022-09-09T04:21:08;8.52;;;1.90;;
56201;SDS011;42117;50.360;3.508;2022-09-09T04:23:35;9.63;;;1.95;;
56201;SDS011;42117;50.360;3.508;2022-09-09T04:26:01;10.68;;;2.47;;
56201;SDS011;42117;50.360;3.508;2022-09-09T04:28:28;12.65;;;2.95;;
56201;SDS011;42117;50.360;3.508;2022-09-09T04:30:55;5.60;;;2.83;;
56201;SDS011;42117;50.360;3.508;2022-09-09T04:33:24;17.67;;;4.13;;
56201;SDS011;42117;50.360;3.508;2022-09-09T04:35:51;14.55;;;3.28;;
56201;SDS011;42117;50.360;3.508;2022-09-09T04:38:18;19.65;;;4.72;;
56201;SDS011;42117;50.360;3.508;2022-09-09T04:40:47;4.78;;;2.65;;
56201;SDS011;42117;50.360;3.508;2022-09-09T04:43:14;9.00;;;2.58;;
56201;SDS011;42117;50.360;3.508;2022-09-09T04:45:41;16.38;;;4.68;;
56201;SDS011;42117;50.360;3.508;2022-09-09T04:48:07;7.43;;;1.80;;
56201;SDS011;42117;50.360;3.508;2022-09-09T04:50:34;5.82;;;2.63;;
56201;SDS011;42117;50.360;3.508;2022-09-09T04:53:04;9.27;;;1.85;;
56201;SDS011;42117;50.360;3.508;2022-09-09T04:55:30;6.95;;;1.58;;
56201;SDS011;42117;50.360;3.508;2022-09-09T04:57:56;6.05;;;1.33;;
56201;SDS011;42117;50.360;3.508;2022-09-09T05:00:23;5.88;;;2.22;;
56201;SDS011;42117;50.360;3.508;2022-09-09T05:02:49;1.50;;;1.15;;
56201;SDS011;42117;50.360;3.508;2022-09-09T05:05:16;6.97;;;1.83;;
56201;SDS011;42117;50.360;3.508;2022-09-09T05:07:43;6.18;;;2.40;;
56201;SDS011;42117;50.360;3.508;2022-09-09T05:10:09;2.63;;;1.75;;
56201;SDS011;42117;50.360;3.508;2022-09-09T05:12:35;14.68;;;2.67;;
56201;SDS011;42117;50.360;3.508;2022-09-09T05:15:01;7.30;;;1.63;;
56201;SDS011;42117;50.360;3.508;2022-09-09T05:17:28;2.92;;;1.50;;
56201;SDS011;42117;50.360;3.508;2022-09-09T05:19:53;6.35;;;1.80;;
56201;SDS011;42117;50.360;3.508;2022-09-09T05:22:20;1.80;;;1.63;;
56201;SDS011;42117;50.360;3.508;2022-09-09T05:24:48;6.93;;;1.95;;
56201;SDS011;42117;50.360;3.508;2022-09-09T05:27:16;9.82;;;1.50;;
56201;SDS011;42117;50.360;3.508;2022-09-09T05:29:43;13.38;;;2.20;;
56201;SDS011;42117;50.360;3.508;2022-09-09T05:32:09;15.18;;;2.10;;
56201;SDS011;42117;50.360;3.508;2022-09-09T05:34:35;2.47;;;1.15;;
56201;SDS011;42117;50.360;3.508;2022-09-09T05:37:02;11.07;;;1.90;;
56201;SDS011;42117;50.360;3.508;2022-09-09T05:39:29;8.93;;;1.65;;
56201;SDS011;42117;50.360;3.508;2022-09-09T05:41:55;5.72;;;1.45;;
56201;SDS011;42117;50.360;3.508;2022-09-09T05:44:21;7.97;;;1.83;;
56201;SDS011;42117;50.360;3.508;2022-09-09T05:46:52;8.68;;;0.90;;
56201;SDS011;42117;50.360;3.508;2022-09-09T05:49:19;4.95;;;1.38;;
56201;SDS011;42117;50.360;3.508;2022-09-09T05:51:46;7.90;;;1.48;;
56201;SDS011;42117;50.360;3.508;2022-09-09T05:54:13;4.10;;;1.35;;
56201;SDS011;42117;50.360;3.508;2022-09-09T05:56:40;0.80;;;0.60;;
56201;SDS011;42117;50.360;3.508;2022-09-09T05:59:07;0.60;;;0.60;;
56201;SDS011;42117;50.360;3.508;2022-09-09T06:01:34;9.00;;;1.95;;
56201;SDS011;42117;50.360;3.508;2022-09-09T06:04:00;5.93;;;2.10;;
56201;SDS011;42117;50.360;3.508;2022-09-09T06:06:27;8.82;;;1.60;;
56201;SDS011;42117;50.360;3.508;2022-09-09T06:08:56;4.40;;;1.33;;
56201;SDS011;42117;50.360;3.508;2022-09-09T06:11:27;6.85;;;1.52;;
56201;SDS011;42117;50.360;3.508;2022-09-09T06:13:55;4.63;;;0.88;;
56201;SDS011;42117;50.360;3.508;2022-09-09T06:16:22;7.65;;;2.08;;
56201;SDS011;42117;50.360;3.508;2022-09-09T06:18:49;6.47;;;0.93;;
56201;SDS011;42117;50.360;3.508;2022-09-09T06:21:19;5.97;;;1.23;;
56201;SDS011;42117;50.360;3.508;2022-09-09T06:23:46;7.40;;;2.30;;
56201;SDS011;42117;50.360;3.508;2022-09-09T06:26:16;5.88;;;1.45;;
56201;SDS011;42117;50.360;3.508;2022-09-09T06:28:43;3.67;;;1.10;;
56201;SDS011;42117;50.360;3.508;2022-09-09T06:31:11;11.70;;;1.80;;
56201;SDS011;42117;50.360;3.508;2022-09-09T06:33:38;4.63;;;2.58;;
56201;SDS011;42117;50.360;3.508;2022-09-09T06:36:06;4.53;;;2.70;;
56201;SDS011;42117;50.360;3.508;2022-09-09T06:38:32;5.80;;;2.53;;
56201;SDS011;42117;50.360;3.508;2022-09-09T06:40:59;5.93;;;2.13;;
56201;SDS011;42117;50.360;3.508;2022-09-09T06:43:25;3.28;;;1.45;;
56201;SDS011;42117;50.360;3.508;2022-09-09T06:45:59;6.45;;;2.67;;
56201;SDS011;42117;50.360;3.508;2022-09-09T06:48:25;4.32;;;2.00;;
56201;SDS011;42117;50.360;3.508;2022-09-09T06:51:06;10.07;;;3.58;;
56201;SDS011;42117;50.360;3.508;2022-09-09T06:55:59;1.27;;;1.23;;
56201;SDS011;42117;50.360;3.508;2022-09-09T06:58:26;9.75;;;2.40;;
56201;SDS011;42117;50.360;3.508;2022-09-09T07:00:52;6.20;;;1.60;;
56201;SDS011;42117;50.360;3.508;2022-09-09T07:03:18;2.70;;;1.63;;
56201;SDS011;42117;50.360;3.508;2022-09-09T07:05:53;1.80;;;1.15;;
56201;SDS011;42117;50.360;3.508;2022-09-09T07:08:19;5.03;;;1.40;;
56201;SDS011;42117;50.360;3.508;2022-09-09T07:10:45;3.03;;;1.50;;
56201;SDS011;42117;50.360;3.508;2022-09-09T07:13:12;3.50;;;1.77;;
56201;SDS011;42117;50.360;3.508;2022-09-09T07:15:39;11.90;;;1.98;;
56201;SDS011;42117;50.360;3.508;2022-09-09T07:18:05;6.18;;;1.73;;
56201;SDS011;42117;50.360;3.508;2022-09-09T07:20:31;9.63;;;2.25;;
56201;SDS011;42117;50.360;3.508;2022-09-09T07:22:57;6.60;;;1.67;;
56201;SDS011;42117;50.360;3.508;2022-09-09T07:25:24;1.65;;;1.55;;
56201;SDS011;42117;50.360;3.508;2022-09-09T07:27:53;8.07;;;2.40;;
56201;SDS011;42117;50.360;3.508;2022-09-09T07:30:19;0.90;;;0.90;;
56201;SDS011;42117;50.360;3.508;2022-09-09T07:32:45;11.00;;;2.65;;
56201;SDS011;42117;50.360;3.508;2022-09-09T07:35:11;7.53;;;1.48;;
56201;SDS011;42117;50.360;3.508;2022-09-09T07:37:37;3.97;;;2.05;;
56201;SDS011;42117;50.360;3.508;2022-09-09T07:40:03;4.38;;;1.00;;
56201;SDS011;42117;50.360;3.508;2022-09-09T07:42:30;3.00;;;0.98;;
56201;SDS011;42117;50.360;3.508;2022-09-09T07:44:56;2.17;;;1.20;;
56201;SDS011;42117;50.360;3.508;2022-09-09T07:47:22;1.95;;;0.95;;
56201;SDS011;42117;50.360;3.508;2022-09-09T07:49:49;6.68;;;1.30;;
56201;SDS011;42117;50.360;3.508;2022-09-09T07:52:15;5.95;;;1.10;;
56201;SDS011;42117;50.360;3.508;2022-09-09T07:54:41;3.95;;;1.48;;
56201;SDS011;42117;50.360;3.508;2022-09-09T07:57:07;5.53;;;1.50;;
56201;SDS011;42117;50.360;3.508;2022-09-09T07:59:33;2.03;;;1.10;;
56201;SDS011;42117;50.360;3.508;2022-09-09T08:01:59;2.90;;;1.35;;
56201;SDS011;42117;50.360;3.508;2022-09-09T08:04:25;3.00;;;1.30;;
56201;SDS011;42117;50.360;3.508;2022-09-09T08:06:57;2.88;;;1.90;;
56201;SDS011;42117;50.360;3.508;2022-09-09T08:09:23;9.25;;;2.00;;
56201;SDS011;42117;50.360;3.508;2022-09-09T08:11:52;11.02;;;1.77;;
56201;SDS011;42117;50.360;3.508;2022-09-09T08:14:18;2.92;;;1.15;;
56201;SDS011;42117;50.360;3.508;2022-09-09T08:16:45;2.65;;;1.33;;
56201;SDS011;42117;50.360;3.508;2022-09-09T08:19:11;6.05;;;1.40;;
56201;SDS011;42117;50.360;3.508;2022-09-09T08:21:38;8.27;;;2.25;;
56201;SDS011;42117;50.360;3.508;2022-09-09T08:24:05;1.27;;;1.27;;
56201;SDS011;42117;50.360;3.508;2022-09-09T08:26:32;7.15;;;1.40;;
56201;SDS011;42117;50.360;3.508;2022-09-09T08:29:00;9.30;;;1.02;;
56201;SDS011;42117;50.360;3.508;2022-09-09T08:31:30;3.22;;;1.50;;
56201;SDS011;42117;50.360;3.508;2022-09-09T08:33:57;10.48;;;2.28;;
56201;SDS011;42117;50.360;3.508;2022-09-09T08:36:32;0.60;;;0.60;;
56201;SDS011;42117;50.360;3.508;2022-09-09T08:38:58;0.75;;;0.75;;
56201;SDS011;42117;50.360;3.508;2022-09-09T08:43:50;3.72;;;0.93;;
56201;SDS011;42117;50.360;3.508;2022-09-09T08:46:25;7.03;;;0.93;;
56201;SDS011;42117;50.360;3.508;2022-09-09T08:49:13;8.20;;;1.58;;
56201;SDS011;42117;50.360;3.508;2022-09-09T08:51:42;2.80;;;1.27;;
56201;SDS011;42117;50.360;3.508;2022-09-09T08:54:08;8.90;;;1.60;;
56201;SDS011;42117;50.360;3.508;2022-09-09T08:56:35;13.05;;;2.22;;
56201;SDS011;42117;50.360;3.508;2022-09-09T08:59:01;9.82;;;1.65;;
56201;SDS011;42117;50.360;3.508;2022-09-09T09:11:52;6.38;;;1.80;;
56201;SDS011;42117;50.360;3.508;2022-09-09T09:14:23;14.05;;;3.15;;
56201;SDS011;42117;50.360;3.508;2022-09-09T09:19:15;2.28;;;1.02;;
56201;SDS011;42117;50.360;3.508;2022-09-09T09:21:43;8.50;;;2.85;;
56201;SDS011;42117;50.360;3.508;2022-09-09T09:24:56;2.33;;;1.33;;
56201;SDS011;42117;50.360;3.508;2022-09-09T09:26:57;5.93;;;1.52;;
56201;SDS011;42117;50.360;3.508;2022-09-09T09:29:26;5.10;;;1.65;;
56201;SDS011;42117;50.360;3.508;2022-09-09T09:31:53;3.63;;;1.98;;
56201;SDS011;42117;50.360;3.508;2022-09-09T09:34:22;2.13;;;1.17;;
56201;SDS011;42117;50.360;3.508;2022-09-09T09:36:56;7.78;;;2.25;;
56201;SDS011;42117;50.360;3.508;2022-09-09T09:39:26;6.22;;;1.60;;
56201;SDS011;42117;50.360;3.508;2022-09-09T09:41:53;7.07;;;1.98;;
56201;SDS011;42117;50.360;3.508;2022-09-09T09:44:25;7.30;;;1.63;;
56201;SDS011;42117;50.360;3.508;2022-09-09T09:46:51;1.85;;;1.75;;
56201;SDS011;42117;50.360;3.508;2022-09-09T09:49:18;6.30;;;1.27;;
56201;SDS011;42117;50.360;3.508;2022-09-09T09:51:44;6.90;;;1.83;;
56201;SDS011;42117;50.360;3.508;2022-09-09T09:54:21;6.25;;;1.83;;
56201;SDS011;42117;50.360;3.508;2022-09-09T09:56:48;1.17;;;1.08;;
56201;SDS011;42117;50.360;3.508;2022-09-09T10:01:50;2.15;;;1.10;;
56201;SDS011;42117;50.360;3.508;2022-09-09T10:04:17;1.65;;;1.02;;
56201;SDS011;42117;50.360;3.508;2022-09-09T10:06:45;8.37;;;2.87;;
56201;SDS011;42117;50.360;3.508;2022-09-09T10:19:21;4.13;;;1.63;;
56201;SDS011;42117;50.360;3.508;2022-09-09T10:25:08;3.13;;;1.75;;
56201;SDS011;42117;50.360;3.508;2022-09-09T10:29:51;4.38;;;1.77;;
56201;SDS011;42117;50.360;3.508;2022-09-09T10:42:43;8.50;;;2.05;;
56201;SDS011;42117;50.360;3.508;2022-09-09T10:45:19;4.88;;;1.25;;
56201;SDS011;42117;50.360;3.508;2022-09-09T10:48:05;2.72;;;2.45;;
56201;SDS011;42117;50.360;3.508;2022-09-09T10:50:40;7.22;;;1.80;;
56201;SDS011;42117;50.360;3.508;2022-09-09T10:55:40;1.58;;;1.48;;
56201;SDS011;42117;50.360;3.508;2022-09-09T10:58:09;13.13;;;2.28;;
56201;SDS011;42117;50.360;3.508;2022-09-09T11:00:43;3.10;;;1.30;;
56201;SDS011;42117;50.360;3.508;2022-09-09T11:03:15;5.18;;;1.00;;
56201;SDS011;42117;50.360;3.508;2022-09-09T11:05:55;3.45;;;1.60;;
56201;SDS011;42117;50.360;3.508;2022-09-09T11:08:24;10.15;;;2.05;;
56201;SDS011;42117;50.360;3.508;2022-09-09T11:11:04;6.80;;;2.75;;
56201;SDS011;42117;50.360;3.508;2022-09-09T11:16:15;1.20;;;1.00;;
56201;SDS011;42117;50.360;3.508;2022-09-09T11:18:42;9.63;;;2.78;;
56201;SDS011;42117;50.360;3.508;2022-09-09T11:21:14;5.93;;;1.90;;
56201;SDS011;42117;50.360;3.508;2022-09-09T11:23:43;0.88;;;0.43;;
56201;SDS011;42117;50.360;3.508;2022-09-09T11:26:17;6.18;;;2.13;;
56201;SDS011;42117;50.360;3.508;2022-09-09T11:31:41;3.25;;;1.65;;
56201;SDS011;42117;50.360;3.508;2022-09-09T11:34:16;1.92;;;1.23;;
56201;SDS011;42117;50.360;3.508;2022-09-09T11:41:48;1.60;;;0.97;;
56201;SDS011;42117;50.360;3.508;2022-09-09T11:44:24;1.27;;;1.00;;
56201;SDS011;42117;50.360;3.508;2022-09-09T11:46:53;1.20;;;1.20;;
56201;SDS011;42117;50.360;3.508;2022-09-09T11:49:29;2.58;;;1.30;;
56201;SDS011;42117;50.360;3.508;2022-09-09T11:51:56;6.55;;;2.53;;
56201;SDS011;42117;50.360;3.508;2022-09-09T11:55:07;8.68;;;2.33;;
56201;SDS011;42117;50.360;3.508;2022-09-09T11:57:25;1.27;;;1.20;;
56201;SDS011;42117;50.360;3.508;2022-09-09T11:59:53;1.45;;;1.00;;
56201;SDS011;42117;50.360;3.508;2022-09-09T12:02:22;4.82;;;2.03;;
56201;SDS011;42117;50.360;3.508;2022-09-09T12:04:55;4.28;;;1.92;;
56201;SDS011;42117;50.360;3.508;2022-09-09T12:07:31;1.08;;;0.95;;
56201;SDS011;42117;50.360;3.508;2022-09-09T12:12:25;0.75;;;0.75;;
56201;SDS011;42117;50.360;3.508;2022-09-09T12:15:25;3.22;;;1.45;;
56201;SDS011;42117;50.360;3.508;2022-09-09T12:17:46;6.30;;;1.95;;
56201;SDS011;42117;50.360;3.508;2022-09-09T12:20:20;5.22;;;1.42;;
56201;SDS011;42117;50.360;3.508;2022-09-09T12:30:49;3.58;;;1.25;;
56201;SDS011;42117;50.360;3.508;2022-09-09T12:33:19;2.30;;;1.73;;
56201;SDS011;42117;50.360;3.508;2022-09-09T12:35:50;2.97;;;1.00;;
56201;SDS011;42117;50.360;3.508;2022-09-09T12:38:22;1.58;;;1.35;;
56201;SDS011;42117;50.360;3.508;2022-09-09T12:40:54;6.40;;;1.42;;
56201;SDS011;42117;50.360;3.508;2022-09-09T12:43:22;1.00;;;1.00;;
56201;SDS011;42117;50.360;3.508;2022-09-09T12:45:52;4.68;;;1.30;;
56201;SDS011;42117;50.360;3.508;2022-09-09T12:48:22;2.10;;;0.95;;
56201;SDS011;42117;50.360;3.508;2022-09-09T12:50:51;5.50;;;1.03;;
56201;SDS011;42117;50.360;3.508;2022-09-09T12:53:25;2.10;;;0.68;;
56201;SDS011;42117;50.360;3.508;2022-09-09T12:55:59;1.55;;;0.73;;
56201;SDS011;42117;50.360;3.508;2022-09-09T12:58:25;1.20;;;1.10;;
56201;SDS011;42117;50.360;3.508;2022-09-09T13:00:54;4.85;;;0.75;;
56201;SDS011;42117;50.360;3.508;2022-09-09T13:03:21;0.93;;;0.93;;
56201;SDS011;42117;50.360;3.508;2022-09-09T13:05:47;2.28;;;1.10;;
56201;SDS011;42117;50.360;3.508;2022-09-09T13:08:14;2.00;;;0.50;;
56201;SDS011;42117;50.360;3.508;2022-09-09T13:13:15;2.85;;;0.80;;
56201;SDS011;42117;50.360;3.508;2022-09-09T13:15:48;0.30;;;0.30;;
56201;SDS011;42117;50.360;3.508;2022-09-09T13:18:15;0.50;;;0.50;;
56201;SDS011;42117;50.360;3.508;2022-09-09T13:20:45;2.50;;;0.93;;
56201;SDS011;42117;50.360;3.508;2022-09-09T13:23:12;4.30;;;0.73;;
56201;SDS011;42117;50.360;3.508;2022-09-09T13:25:38;1.60;;;1.23;;
56201;SDS011;42117;50.360;3.508;2022-09-09T13:28:05;3.63;;;0.90;;
56201;SDS011;42117;50.360;3.508;2022-09-09T13:30:35;1.48;;;1.05;;
56201;SDS011;42117;50.360;3.508;2022-09-09T13:33:04;2.50;;;0.85;;
56201;SDS011;42117;50.360;3.508;2022-09-09T13:35:30;9.05;;;0.82;;
56201;SDS011;42117;50.360;3.508;2022-09-09T13:37:57;2.40;;;0.77;;
56201;SDS011;42117;50.360;3.508;2022-09-09T13:40:23;1.45;;;0.57;;
56201;SDS011;42117;50.360;3.508;2022-09-09T13:42:56;0.50;;;0.50;;
56201;SDS011;42117;50.360;3.508;2022-09-09T13:45:23;1.52;;;1.05;;
56201;SDS011;42117;50.360;3.508;2022-09-09T13:47:51;1.92;;;1.00;;
56201;SDS011;42117;50.360;3.508;2022-09-09T13:52:53;2.78;;;0.82;;
56201;SDS011;42117;50.360;3.508;2022-09-09T13:55:19;3.05;;;0.68;;
56201;SDS011;42117;50.360;3.508;2022-09-09T13:57:50;0.40;;;0.40;;
56201;SDS011;42117;50.360;3.508;2022-09-09T14:02:42;4.53;;;1.02;;
56201;SDS011;42117;50.360;3.508;2022-09-09T14:05:09;10.20;;;1.20;;
56201;SDS011;42117;50.360;3.508;2022-09-09T14:07:36;2.72;;;0.77;;
56201;SDS011;42117;50.360;3.508;2022-09-09T14:10:03;0.98;;;0.55;;
56201;SDS011;42117;50.360;3.508;2022-09-09T14:12:29;0.57;;;0.55;;
56201;SDS011;42117;50.360;3.508;2022-09-09T14:14:55;0.63;;;0.38;;
56201;SDS011;42117;50.360;3.508;2022-09-09T14:17:21;5.28;;;0.98;;
56201;SDS011;42117;50.360;3.508;2022-09-09T14:19:48;1.55;;;0.75;;
56201;SDS011;42117;50.360;3.508;2022-09-09T14:22:14;0.75;;;0.75;;
56201;SDS011;42117;50.360;3.508;2022-09-09T14:24:40;3.40;;;0.40;;
56201;SDS011;42117;50.360;3.508;2022-09-09T14:27:06;0.40;;;0.40;;
56201;SDS011;42117;50.360;3.508;2022-09-09T14:29:32;3.08;;;1.10;;
56201;SDS011;42117;50.360;3.508;2022-09-09T14:31:58;8.88;;;1.88;;
56201;SDS011;42117;50.360;3.508;2022-09-09T14:34:26;2.45;;;1.00;;
56201;SDS011;42117;50.360;3.508;2022-09-09T14:36:52;1.65;;;0.60;;
56201;SDS011;42117;50.360;3.508;2022-09-09T14:39:18;0.70;;;0.70;;
56201;SDS011;42117;50.360;3.508;2022-09-09T14:41:44;1.15;;;0.77;;
56201;SDS011;42117;50.360;3.508;2022-09-09T14:44:10;5.70;;;1.00;;
56201;SDS011;42117;50.360;3.508;2022-09-09T14:46:36;3.00;;;1.25;;
56201;SDS011;42117;50.360;3.508;2022-09-09T14:49:02;3.10;;;1.38;;
56201;SDS011;42117;50.360;3.508;2022-09-09T14:51:29;4.70;;;1.33;;
56201;SDS011;42117;50.360;3.508;2022-09-09T14:53:56;10.43;;;0.52;;
56201;SDS011;42117;50.360;3.508;2022-09-09T14:56:23;2.58;;;1.08;;
56201;SDS011;42117;50.360;3.508;2022-09-09T14:58:52;2.50;;;1.05;;
56201;SDS011;42117;50.360;3.508;2022-09-09T15:01:18;1.95;;;1.25;;
56201;SDS011;42117;50.360;3.508;2022-09-09T15:03:49;5.10;;;0.93;;
56201;SDS011;42117;50.360;3.508;2022-09-09T15:06:16;4.45;;;0.77;;
56201;SDS011;42117;50.360;3.508;2022-09-09T15:08:43;2.35;;;0.65;;
56201;SDS011;42117;50.360;3.508;2022-09-09T15:11:10;3.03;;;1.05;;
56201;SDS011;42117;50.360;3.508;2022-09-09T15:13:37;0.43;;;0.32;;
56201;SDS011;42117;50.360;3.508;2022-09-09T15:16:05;0.98;;;0.75;;
56201;SDS011;42117;50.360;3.508;2022-09-09T15:18:32;1.00;;;0.47;;
56201;SDS011;42117;50.360;3.508;2022-09-09T15:20:59;2.50;;;0.43;;
56201;SDS011;42117;50.360;3.508;2022-09-09T15:23:26;2.22;;;0.50;;
56201;SDS011;42117;50.360;3.508;2022-09-09T15:25:53;2.05;;;0.95;;
56201;SDS011;42117;50.360;3.508;2022-09-09T15:28:20;0.38;;;0.38;;
56201;SDS011;42117;50.360;3.508;2022-09-09T15:30:49;1.10;;;0.73;;
56201;SDS011;42117;50.360;3.508;2022-09-09T15:33:16;1.13;;;1.00;;
56201;SDS011;42117;50.360;3.508;2022-09-09T15:35:42;3.00;;;0.70;;
56201;SDS011;42117;50.360;3.508;2022-09-09T15:38:08;4.35;;;1.02;;
56201;SDS011;42117;50.360;3.508;2022-09-09T15:40:35;2.42;;;0.52;;
56201;SDS011;42117;50.360;3.508;2022-09-09T15:43:01;1.70;;;1.17;;
56201;SDS011;42117;50.360;3.508;2022-09-09T15:45:28;0.60;;;0.60;;
56201;SDS011;42117;50.360;3.508;2022-09-09T15:47:57;5.72;;;0.95;;
56201;SDS011;42117;50.360;3.508;2022-09-09T15:50:23;3.83;;;1.17;;
56201;SDS011;42117;50.360;3.508;2022-09-09T15:52:49;5.78;;;1.10;;
56201;SDS011;42117;50.360;3.508;2022-09-09T15:55:17;5.18;;;1.33;;
56201;SDS011;42117;50.360;3.508;2022-09-09T15:57:43;0.80;;;0.40;;
56201;SDS011;42117;50.360;3.508;2022-09-09T16:00:09;3.05;;;0.98;;
56201;SDS011;42117;50.360;3.508;2022-09-09T16:02:37;1.88;;;1.27;;
56201;SDS011;42117;50.360;3.508;2022-09-09T16:05:03;10.20;;;1.20;;
56201;SDS011;42117;50.360;3.508;2022-09-09T16:07:29;1.23;;;1.00;;
56201;SDS011;42117;50.360;3.508;2022-09-09T16:09:55;4.57;;;1.02;;
56201;SDS011;42117;50.360;3.508;2022-09-09T16:12:21;5.47;;;1.13;;
56201;SDS011;42117;50.360;3.508;2022-09-09T16:14:47;1.30;;;0.50;;
56201;SDS011;42117;50.360;3.508;2022-09-09T16:17:13;3.22;;;0.77;;
56201;SDS011;42117;50.360;3.508;2022-09-09T16:19:40;0.93;;;0.70;;
56201;SDS011;42117;50.360;3.508;2022-09-09T16:22:06;4.65;;;1.00;;
56201;SDS011;42117;50.360;3.508;2022-09-09T16:24:32;0.50;;;0.50;;
56201;SDS011;42117;50.360;3.508;2022-09-09T16:26:58;5.03;;;1.40;;
56201;SDS011;42117;50.360;3.508;2022-09-09T16:29:24;5.20;;;1.05;;
56201;SDS011;42117;50.360;3.508;2022-09-09T16:31:52;6.82;;;1.08;;
56201;SDS011;42117;50.360;3.508;2022-09-09T16:34:18;2.72;;;0.98;;
56201;SDS011;42117;50.360;3.508;2022-09-09T16:36:44;1.75;;;0.90;;
56201;SDS011;42117;50.360;3.508;2022-09-09T16:39:11;1.80;;;0.80;;
56201;SDS011;42117;50.360;3.508;2022-09-09T16:41:38;1.10;;;0.80;;
56201;SDS011;42117;50.360;3.508;2022-09-09T16:44:05;2.30;;;1.15;;
56201;SDS011;42117;50.360;3.508;2022-09-09T16:46:33;5.03;;;1.23;;
56201;SDS011;42117;50.360;3.508;2022-09-09T16:49:00;1.25;;;0.85;;
56201;SDS011;42117;50.360;3.508;2022-09-09T16:51:30;10.60;;;1.02;;
56201;SDS011;42117;50.360;3.508;2022-09-09T16:54:00;4.90;;;1.05;;
56201;SDS011;42117;50.360;3.508;2022-09-09T16:56:27;3.03;;;1.20;;
56201;SDS011;42117;50.360;3.508;2022-09-09T16:58:54;0.70;;;0.70;;
56201;SDS011;42117;50.360;3.508;2022-09-09T17:01:21;3.63;;;0.85;;
56201;SDS011;42117;50.360;3.508;2022-09-09T17:03:51;8.20;;;1.33;;
56201;SDS011;42117;50.360;3.508;2022-09-09T17:06:17;4.95;;;0.95;;
56201;SDS011;42117;50.360;3.508;2022-09-09T17:08:44;4.47;;;1.60;;